createdAt,value
2023-04-26T00:00:59.404Z,38.58
2023-04-26T00:03:48.554Z,38.53
2023-04-26T00:06:21.172Z,38.50
2023-04-26T00:08:58.980Z,38.38
2023-04-26T00:11:29.897Z,38.23
2023-04-26T00:14:01.235Z,38.17
2023-04-26T00:16:35.390Z,38.13
2023-04-26T00:19:16.830Z,38.20
2023-04-26T00:21:53.310Z,38.04
2023-04-26T00:24:32.587Z,38.01
2023-04-26T00:30:27.979Z,37.88
2023-04-26T00:32:58.129Z,37.78
2023-04-26T00:35:31.337Z,37.65
2023-04-26T00:38:13.587Z,37.55
2023-04-26T00:41:40.253Z,37.94
2023-04-26T00:44:11.281Z,37.35
2023-04-26T00:46:49.641Z,37.13
2023-04-26T00:49:29.548Z,37.11
2023-04-26T00:52:07.555Z,37.02
2023-04-26T00:55:01.853Z,36.99
2023-04-26T00:57:42.888Z,36.82
2023-04-26T01:00:27.271Z,36.78
2023-04-26T01:03:01.531Z,36.67
2023-04-26T01:05:41.613Z,36.61
2023-04-26T01:08:19.248Z,36.47
2023-04-26T01:10:58.592Z,36.35
2023-04-26T01:13:35.774Z,36.42
2023-04-26T01:16:12.783Z,36.31
2023-04-26T01:18:55.799Z,36.27
2023-04-26T01:21:27.167Z,36.09
2023-04-26T01:23:59.775Z,36.11
2023-04-26T01:26:35.197Z,36.00
2023-04-26T01:29:21.122Z,36.04
2023-04-26T01:31:53.349Z,35.89
2023-04-26T01:34:25.496Z,35.77
2023-04-26T01:37:00.091Z,35.64
2023-04-26T01:39:33.202Z,35.57
2023-04-26T01:42:07.546Z,35.55
2023-04-26T01:44:39.963Z,35.59
2023-04-26T01:47:13.929Z,35.58
2023-04-26T01:49:48.969Z,35.57
2023-04-26T01:52:20.993Z,35.52
2023-04-26T01:54:52.797Z,35.49
2023-04-26T01:57:23.700Z,35.41
2023-04-26T01:59:55.569Z,35.40
2023-04-26T02:02:27.989Z,35.40
2023-04-26T02:04:57.358Z,35.26
2023-04-26T02:07:32.190Z,35.19
2023-04-26T02:10:02.996Z,35.09
2023-04-26T02:12:32.782Z,35.01
2023-04-26T02:15:03.959Z,34.93
2023-04-26T02:17:35.204Z,34.92
2023-04-26T02:20:07.290Z,34.89
2023-04-26T02:22:43.048Z,34.87
2023-04-26T02:25:18.608Z,34.81
2023-04-26T02:27:48.845Z,34.76
2023-04-26T02:30:42.464Z,34.74
2023-04-26T02:33:19.798Z,34.80
2023-04-26T02:35:50.097Z,34.73
2023-04-26T02:38:23.214Z,34.62
2023-04-26T02:41:05.578Z,34.70
2023-04-26T02:43:39.588Z,34.66
2023-04-26T02:46:13.890Z,34.52
2023-04-26T02:48:57.003Z,34.46
2023-04-26T02:51:28.546Z,34.45
2023-04-26T02:54:01.623Z,34.41
2023-04-26T02:56:35.899Z,34.34
2023-04-26T02:59:09.958Z,34.28
2023-04-26T03:01:47.041Z,34.26
2023-04-26T03:04:21.080Z,34.27
2023-04-26T03:07:08.007Z,34.39
2023-04-26T03:09:51.390Z,34.33
2023-04-26T03:12:23.483Z,34.25
2023-04-26T03:14:55.470Z,34.19
2023-04-26T03:17:29.227Z,34.27
2023-04-26T03:20:02.680Z,34.09
2023-04-26T03:22:35.503Z,34.09
2023-04-26T03:25:09.441Z,34.15
2023-04-26T03:27:48.587Z,34.06
2023-04-26T03:30:24.170Z,33.97
2023-04-26T03:32:59.933Z,33.83
2023-04-26T03:35:32.089Z,33.74
2023-04-26T03:38:04.385Z,33.70
2023-04-26T03:40:35.389Z,33.62
2023-04-26T03:43:08.314Z,33.57
2023-04-26T03:45:39.386Z,33.48
2023-04-26T03:48:12.836Z,33.44
2023-04-26T03:50:52.652Z,33.53
2023-04-26T03:53:23.858Z,33.45
2023-04-26T03:55:59.798Z,33.41
2023-04-26T03:58:47.497Z,33.40
2023-04-26T04:01:23.351Z,33.41
2023-04-26T04:03:55.839Z,33.36
2023-04-26T04:06:25.849Z,33.31
2023-04-26T04:08:55.323Z,33.22
2023-04-26T04:11:24.900Z,33.14
2023-04-26T04:13:54.083Z,33.10
2023-04-26T04:16:24.526Z,33.10
2023-04-26T04:18:53.479Z,33.07
2023-04-26T04:21:22.877Z,33.05
2023-04-26T04:23:51.672Z,33.04
2023-04-26T04:26:21.572Z,33.06
2023-04-26T04:28:52.814Z,32.87
2023-04-26T04:31:24.117Z,32.87
2023-04-26T04:33:52.849Z,32.86
2023-04-26T04:36:22.696Z,32.76
2023-04-26T04:38:52.374Z,32.73
2023-04-26T04:41:23.577Z,32.71
2023-04-26T04:43:56.674Z,32.70
2023-04-26T04:46:26.656Z,32.77
2023-04-26T04:48:55.897Z,32.69
2023-04-26T04:51:24.745Z,32.65
2023-04-26T04:53:53.376Z,32.61
2023-04-26T04:56:23.310Z,32.59
2023-04-26T04:58:53.341Z,32.56
2023-04-26T05:01:23.491Z,32.54
2023-04-26T05:03:56.367Z,32.52
2023-04-26T05:06:27.281Z,32.48
2023-04-26T05:08:59.472Z,32.41
2023-04-26T05:11:28.665Z,32.39
2023-04-26T05:13:57.181Z,32.34
2023-04-26T05:16:27.092Z,32.27
2023-04-26T05:18:56.404Z,32.28
2023-04-26T05:21:25.221Z,32.27
2023-04-26T05:23:54.300Z,32.31
2023-04-26T05:26:24.196Z,32.32
2023-04-26T05:29:16.558Z,32.45
2023-04-26T05:32:06.745Z,32.62
2023-04-26T05:34:42.956Z,32.69
2023-04-26T05:37:17.799Z,32.67
2023-04-26T05:39:50.926Z,32.68
2023-04-26T05:42:20.364Z,32.64
2023-04-26T05:44:49.307Z,32.62
2023-04-26T05:47:18.916Z,32.55
2023-04-26T05:49:47.823Z,32.51
2023-04-26T05:52:17.755Z,32.55
2023-04-26T05:54:47.928Z,32.53
2023-04-26T05:57:18.984Z,32.50
2023-04-26T05:59:48.773Z,32.48
2023-04-26T06:02:19.110Z,32.51
2023-04-26T06:04:48.516Z,32.54
2023-04-26T06:07:19.168Z,32.58
2023-04-26T06:09:49.945Z,32.55
2023-04-26T06:12:19.126Z,32.59
2023-04-26T06:14:48.631Z,32.63
2023-04-26T06:17:23.161Z,32.75
2023-04-26T06:19:52.489Z,32.69
2023-04-26T06:22:21.006Z,32.65
2023-04-26T06:24:52.403Z,32.64
2023-04-26T06:27:21.049Z,32.62
2023-04-26T06:29:53.111Z,32.62
2023-04-26T06:32:22.736Z,32.64
2023-04-26T06:34:52.053Z,32.58
2023-04-26T06:37:21.001Z,32.56
2023-04-26T06:39:51.381Z,32.60
2023-04-26T06:42:21.085Z,32.60
2023-04-26T06:45:11.141Z,32.69
2023-04-26T06:47:40.125Z,32.70
2023-04-26T06:50:09.462Z,32.74
2023-04-26T06:52:39.140Z,32.77
2023-04-26T06:55:08.398Z,32.78
2023-04-26T06:57:37.419Z,32.77
2023-04-26T07:00:07.943Z,32.73
2023-04-26T07:02:36.930Z,32.68
2023-04-26T07:05:07.005Z,32.70
2023-04-26T07:07:36.777Z,32.72
2023-04-26T07:10:06.856Z,32.72
2023-04-26T07:12:39.273Z,32.72
2023-04-26T07:15:10.203Z,32.73
2023-04-26T07:17:40.140Z,32.76
2023-04-26T07:20:09.679Z,32.84
2023-04-26T07:22:39.162Z,32.86
2023-04-26T07:25:09.614Z,32.88
2023-04-26T07:27:39.244Z,32.94
2023-04-26T07:30:09.503Z,32.97
2023-04-26T07:32:38.843Z,33.00
2023-04-26T07:35:09.765Z,33.01
2023-04-26T07:37:39.155Z,33.02
2023-04-26T07:40:11.217Z,33.06
2023-04-26T07:42:40.613Z,33.08
2023-04-26T07:45:10.809Z,33.06
2023-04-26T07:47:40.162Z,33.07
2023-04-26T07:50:09.941Z,33.04
2023-04-26T07:52:39.949Z,33.06
2023-04-26T07:55:10.769Z,33.11
2023-04-26T07:57:40.238Z,33.14
2023-04-26T08:00:14.232Z,34.37
2023-04-26T08:02:45.607Z,33.61
2023-04-26T08:05:19.202Z,33.36
2023-04-26T08:07:48.301Z,33.31
2023-04-26T08:10:18.347Z,33.25
2023-04-26T08:12:47.919Z,33.23
2023-04-26T08:15:19.739Z,33.21
2023-04-26T08:17:49.803Z,33.24
2023-04-26T08:20:26.806Z,33.29
2023-04-26T08:23:05.493Z,33.37
2023-04-26T08:25:37.630Z,33.33
2023-04-26T08:28:09.359Z,34.41
2023-04-26T08:30:39.244Z,33.67
2023-04-26T08:33:08.258Z,33.38
2023-04-26T08:35:37.326Z,33.24
2023-04-26T08:38:06.215Z,33.14
2023-04-26T08:40:38.247Z,33.17
2023-04-26T08:43:22.679Z,33.14
2023-04-26T08:45:59.729Z,33.17
2023-04-26T08:48:41.485Z,33.22
2023-04-26T08:51:33.601Z,34.54
2023-04-26T08:54:09.986Z,34.53
2023-04-26T08:56:47.119Z,34.68
2023-04-26T08:59:19.184Z,34.70
2023-04-26T09:01:56.306Z,34.68
2023-04-26T09:04:26.329Z,34.59
2023-04-26T09:07:05.274Z,34.61
2023-04-26T09:09:43.211Z,34.44
2023-04-26T09:12:24.875Z,34.38
2023-04-26T09:14:57.882Z,34.30
2023-04-26T09:17:34.985Z,34.18
2023-04-26T09:20:36.803Z,34.46
2023-04-26T09:23:23.211Z,34.56
2023-04-26T09:25:53.672Z,34.28
2023-04-26T09:28:29.362Z,34.36
2023-04-26T09:31:03.813Z,33.71
2023-04-26T09:33:34.122Z,33.52
2023-04-26T09:36:21.118Z,33.58
2023-04-26T09:38:52.909Z,33.61
2023-04-26T09:41:24.327Z,33.55
2023-04-26T09:43:55.509Z,33.57
2023-04-26T09:46:26.416Z,33.54
2023-04-26T09:49:05.450Z,33.62
2023-04-26T09:51:39.647Z,33.65
2023-04-26T09:54:11.215Z,33.68
2023-04-26T09:56:41.704Z,33.69
2023-04-26T09:59:15.831Z,33.64
2023-04-26T10:01:47.803Z,33.59
2023-04-26T10:04:23.055Z,33.59
2023-04-26T10:06:54.132Z,33.63
2023-04-26T10:09:29.248Z,33.69
2023-04-26T10:12:00.682Z,33.79
2023-04-26T10:14:32.473Z,33.70
2023-04-26T10:17:09.069Z,33.64
2023-04-26T10:19:48.800Z,33.64
2023-04-26T10:22:29.346Z,33.70
2023-04-26T10:25:35.759Z,33.82
2023-04-26T10:28:54.876Z,34.07
2023-04-26T10:31:52.506Z,33.89
2023-04-26T10:34:29.711Z,33.93
2023-04-26T10:37:19.150Z,33.92
2023-04-26T10:39:51.424Z,33.84
2023-04-26T10:42:26.665Z,33.77
2023-04-26T10:45:01.620Z,33.81
2023-04-26T10:47:40.981Z,33.98
2023-04-26T10:50:19.767Z,33.95
2023-04-26T10:53:05.363Z,34.13
2023-04-26T10:56:29.872Z,34.15
2023-04-26T10:59:39.947Z,34.30
2023-04-26T11:02:20.662Z,34.19
2023-04-26T11:04:53.680Z,34.00
2023-04-26T11:07:43.529Z,34.10
2023-04-26T11:10:25.511Z,34.10
2023-04-26T11:13:08.449Z,34.18
2023-04-26T11:15:42.250Z,34.14
2023-04-26T11:18:23.299Z,34.25
2023-04-26T11:21:04.264Z,34.24
2023-04-26T11:23:41.040Z,34.41
2023-04-26T11:26:13.655Z,34.46
2023-04-26T11:28:57.228Z,34.50
2023-04-26T11:31:33.219Z,34.57
2023-04-26T11:34:08.344Z,34.63
2023-04-26T11:37:02.278Z,34.99
2023-04-26T11:39:35.313Z,35.00
2023-04-26T11:42:13.223Z,35.11
2023-04-26T11:44:48.016Z,35.12
2023-04-26T11:47:35.244Z,35.24
2023-04-26T11:50:13.038Z,35.37
2023-04-26T11:52:57.488Z,35.47
2023-04-26T11:55:33.751Z,35.47
2023-04-26T11:58:12.092Z,35.63
2023-04-26T12:01:00.906Z,35.86
2023-04-26T12:03:36.141Z,35.87
2023-04-26T12:06:05.443Z,35.92
2023-04-26T12:08:35.310Z,35.92
2023-04-26T12:11:04.644Z,36.01
2023-04-26T12:13:33.524Z,36.13
2023-04-26T12:16:22.269Z,36.39
2023-04-26T12:18:57.631Z,36.62
2023-04-26T12:21:30.374Z,36.77
2023-04-26T12:23:59.118Z,36.90
2023-04-26T12:26:46.492Z,37.18
2023-04-26T12:29:15.559Z,37.13
2023-04-26T12:31:47.647Z,37.30
2023-04-26T12:34:17.051Z,37.36
2023-04-26T12:36:47.060Z,37.39
2023-04-26T12:39:17.378Z,37.35
2023-04-26T12:41:48.515Z,37.32
2023-04-26T12:44:19.639Z,37.29
2023-04-26T12:46:52.229Z,37.37
2023-04-26T12:49:21.371Z,37.41
2023-04-26T12:51:52.753Z,37.52
2023-04-26T12:54:21.013Z,37.71
2023-04-26T12:56:50.252Z,37.77
2023-04-26T12:59:19.217Z,37.87
2023-04-26T13:01:48.248Z,37.97
2023-04-26T13:04:17.740Z,38.13
2023-04-26T13:06:47.516Z,38.22
2023-04-26T13:09:17.128Z,38.34
2023-04-26T13:11:46.609Z,38.46
2023-04-26T13:14:15.594Z,38.52
2023-04-26T13:16:44.903Z,38.57
2023-04-26T13:19:13.276Z,38.57
2023-04-26T13:21:43.262Z,38.62
2023-04-26T13:24:12.640Z,38.62
2023-04-26T13:26:41.166Z,38.66
2023-04-26T13:29:09.904Z,38.79
2023-04-26T13:31:39.392Z,38.87
2023-04-26T13:34:08.483Z,39.01
2023-04-26T13:36:37.359Z,39.13
2023-04-26T13:39:08.882Z,39.20
2023-04-26T13:41:39.214Z,39.26
2023-04-26T13:44:09.408Z,39.47
2023-04-26T13:46:38.766Z,39.40
2023-04-26T13:49:11.052Z,39.33
2023-04-26T13:51:40.551Z,39.30
2023-04-26T13:54:12.685Z,39.25
2023-04-26T13:56:57.450Z,39.27
2023-04-26T13:59:32.293Z,39.48
2023-04-26T14:02:01.499Z,39.52
2023-04-26T14:04:31.510Z,39.64
2023-04-26T14:07:00.736Z,39.80
2023-04-26T14:09:29.316Z,39.98
2023-04-26T14:12:07.879Z,40.01
2023-04-26T14:14:39.434Z,41.14
2023-04-26T14:17:08.299Z,41.23
2023-04-26T14:19:40.253Z,41.16
2023-04-26T14:22:13.369Z,41.19
2023-04-26T14:24:45.021Z,41.30
2023-04-26T14:27:13.969Z,41.17
2023-04-26T14:29:45.222Z,41.16
2023-04-26T14:32:16.050Z,41.07
2023-04-26T14:34:48.041Z,41.03
2023-04-26T14:37:23.122Z,41.74
2023-04-26T14:39:52.294Z,41.50
2023-04-26T14:42:21.598Z,41.33
2023-04-26T14:44:50.898Z,41.60
2023-04-26T14:47:37.572Z,41.37
2023-04-26T14:50:14.594Z,42.72
2023-04-26T14:52:45.009Z,42.95
2023-04-26T14:55:24.816Z,43.43
2023-04-26T14:57:55.232Z,42.95
2023-04-26T15:00:26.376Z,41.98
2023-04-26T15:02:55.529Z,43.26
2023-04-26T15:05:25.113Z,41.99
2023-04-26T15:07:54.627Z,41.83
2023-04-26T15:10:23.299Z,41.72
2023-04-26T15:12:52.916Z,41.73
2023-04-26T15:15:47.113Z,41.78
2023-04-26T15:19:05.186Z,42.25
2023-04-26T15:21:35.277Z,42.27
2023-04-26T15:24:30.340Z,41.95
2023-04-26T15:27:46.746Z,42.12
2023-04-26T15:33:31.309Z,42.15
2023-04-26T15:35:59.861Z,41.82
2023-04-26T15:39:48.470Z,42.09
2023-04-26T15:42:33.855Z,42.16
2023-04-26T15:47:59.236Z,43.17
2023-04-26T15:50:52.320Z,43.30
2023-04-26T15:53:24.508Z,42.49
2023-04-26T15:55:53.282Z,45.03
2023-04-26T15:58:49.300Z,43.74
2023-04-26T16:01:22.206Z,43.33
2023-04-26T16:04:03.650Z,42.98
2023-04-26T16:06:37.085Z,42.74
2023-04-26T16:09:24.813Z,42.73
2023-04-26T16:11:54.840Z,42.92
2023-04-26T16:14:23.118Z,43.80
2023-04-26T16:16:52.570Z,43.23
2023-04-26T16:19:21.445Z,43.70
2023-04-26T16:21:51.586Z,43.48
2023-04-26T16:24:21.258Z,43.50
2023-04-26T16:26:49.488Z,43.99
2023-04-26T16:29:19.685Z,44.13
2023-04-26T16:31:49.227Z,44.16
2023-04-26T16:34:21.236Z,43.93
2023-04-26T16:37:09.705Z,45.59
2023-04-26T16:39:59.405Z,44.79
2023-04-26T16:42:34.072Z,44.47
2023-04-26T16:45:16.064Z,44.49
2023-04-26T16:47:52.562Z,44.02
2023-04-26T16:50:21.659Z,43.88
2023-04-26T16:52:50.759Z,44.30
2023-04-26T16:55:19.635Z,44.31
2023-04-26T16:57:48.955Z,45.51
2023-04-26T17:00:19.150Z,44.28
2023-04-26T17:02:51.135Z,44.02
2023-04-26T17:05:20.486Z,43.91
2023-04-26T17:07:50.085Z,43.91
2023-04-26T17:10:19.898Z,43.93
2023-04-26T17:12:49.751Z,44.00
2023-04-26T17:15:19.027Z,44.10
2023-04-26T17:17:51.438Z,44.12
2023-04-26T17:20:20.366Z,44.27
2023-04-26T17:22:49.615Z,44.39
2023-04-26T17:25:19.464Z,44.56
2023-04-26T17:27:49.153Z,44.43
2023-04-26T17:30:19.902Z,45.12
2023-04-26T17:32:49.402Z,45.20
2023-04-26T17:35:19.024Z,45.15
2023-04-26T17:37:50.668Z,44.56
2023-04-26T17:40:20.317Z,44.78
2023-04-26T17:42:49.381Z,45.00
2023-04-26T17:45:18.533Z,45.14
2023-04-26T17:47:47.702Z,45.21
2023-04-26T17:50:18.447Z,44.50
2023-04-26T17:52:47.280Z,44.30
2023-04-26T17:55:17.762Z,44.31
2023-04-26T17:57:49.326Z,46.42
2023-04-26T18:00:20.586Z,44.43
2023-04-26T18:02:49.850Z,44.18
2023-04-26T18:05:19.648Z,44.49
2023-04-26T18:07:49.154Z,44.05
2023-04-26T18:10:18.897Z,44.05
2023-04-26T18:12:48.265Z,44.42
2023-04-26T18:15:18.143Z,44.06
2023-04-26T18:17:47.583Z,43.98
2023-04-26T18:20:17.353Z,44.61
2023-04-26T18:22:47.756Z,44.78
2023-04-26T18:25:17.819Z,46.38
2023-04-26T18:27:49.292Z,45.56
2023-04-26T18:30:19.349Z,45.94
2023-04-26T18:32:49.163Z,45.14
2023-04-26T18:35:18.663Z,44.51
2023-04-26T18:37:47.794Z,44.47
2023-04-26T18:40:29.950Z,44.46
2023-04-26T18:43:09.003Z,44.51
2023-04-26T18:45:39.723Z,44.37
2023-04-26T18:48:09.336Z,43.97
2023-04-26T18:50:37.892Z,43.68
2023-04-26T18:53:07.264Z,44.11
2023-04-26T18:55:39.737Z,44.28
2023-04-26T18:58:11.788Z,44.03
2023-04-26T19:00:42.196Z,44.23
2023-04-26T19:03:12.416Z,43.60
2023-04-26T19:05:45.290Z,44.65
2023-04-26T19:08:13.939Z,43.79
2023-04-26T19:10:45.139Z,43.79
2023-04-26T19:13:14.170Z,43.72
2023-04-26T19:15:43.367Z,43.93
2023-04-26T19:18:12.971Z,43.93
2023-04-26T19:20:43.684Z,44.04
2023-04-26T19:23:27.001Z,44.05
2023-04-26T19:26:01.757Z,43.96
2023-04-26T19:28:32.348Z,44.00
2023-04-26T19:31:02.457Z,44.14
2023-04-26T19:33:32.594Z,47.27
2023-04-26T19:36:01.855Z,44.50
2023-04-26T19:38:31.436Z,44.13
2023-04-26T19:41:01.727Z,44.09
2023-04-26T19:43:31.386Z,45.19
2023-04-26T19:46:00.287Z,44.53
2023-04-26T19:48:52.056Z,45.02
2023-04-26T19:51:22.113Z,45.91
2023-04-26T19:53:51.963Z,45.11
2023-04-26T19:56:21.427Z,45.95
2023-04-26T19:58:51.361Z,45.48
2023-04-26T20:01:21.489Z,45.14
2023-04-26T20:03:51.676Z,44.95
2023-04-26T20:06:21.563Z,44.92
2023-04-26T20:08:52.597Z,44.88
2023-04-26T20:11:21.562Z,44.94
2023-04-26T20:13:50.736Z,44.92
2023-04-26T20:16:20.007Z,44.82
2023-04-26T20:18:49.640Z,44.77
2023-04-26T20:21:18.339Z,46.85
2023-04-26T20:23:47.890Z,47.56
2023-04-26T20:26:17.283Z,45.25
2023-04-26T20:28:49.445Z,45.07
2023-04-26T20:31:19.802Z,44.86
2023-04-26T20:33:52.558Z,44.95
2023-04-26T20:36:22.884Z,45.01
2023-04-26T20:38:51.873Z,44.98
2023-04-26T20:41:21.938Z,45.03
2023-04-26T20:43:53.523Z,44.96
2023-04-26T20:46:24.696Z,45.07
2023-04-26T20:48:55.500Z,45.09
2023-04-26T20:51:25.516Z,45.15
2023-04-26T20:53:55.602Z,45.02
2023-04-26T20:56:24.801Z,44.96
2023-04-26T20:58:53.445Z,45.17
2023-04-26T21:01:23.602Z,45.11
2023-04-26T21:03:53.056Z,45.58
2023-04-26T21:06:21.996Z,46.75
2023-04-26T21:08:50.913Z,46.03
2023-04-26T21:11:20.474Z,47.22
2023-04-26T21:13:56.287Z,46.84
2023-04-26T21:16:25.411Z,47.39
2023-04-26T21:18:53.781Z,45.97
2023-04-26T21:21:23.178Z,45.69
2023-04-26T21:23:51.788Z,44.98
2023-04-26T21:26:21.367Z,46.45
2023-04-26T21:28:51.485Z,44.72
2023-04-26T21:31:29.169Z,44.94
2023-04-26T21:34:02.237Z,44.86
2023-04-26T21:36:48.573Z,45.07
2023-04-26T21:40:05.987Z,45.59
2023-04-26T21:42:51.396Z,45.20
2023-04-26T21:45:27.680Z,46.28
2023-04-26T21:47:56.754Z,45.11
2023-04-26T21:50:25.682Z,45.91
2023-04-26T21:52:54.592Z,45.19
2023-04-26T21:55:24.243Z,44.57
2023-04-26T21:57:57.260Z,44.34
2023-04-26T22:00:27.703Z,45.09
2023-04-26T22:02:56.991Z,44.53
2023-04-26T22:05:27.035Z,44.44
2023-04-26T22:07:56.359Z,44.56
2023-04-26T22:10:24.983Z,44.93
2023-04-26T22:12:53.531Z,44.71
2023-04-26T22:15:22.069Z,44.89
2023-04-26T22:17:51.324Z,44.70
2023-04-26T22:20:19.635Z,44.70
2023-04-26T22:22:48.161Z,44.61
2023-04-26T22:25:17.234Z,44.59
2023-04-26T22:27:46.206Z,44.60
2023-04-26T22:30:24.874Z,45.29
2023-04-26T22:32:58.151Z,45.47
2023-04-26T22:35:30.054Z,45.38
2023-04-26T22:38:01.833Z,45.55
2023-04-26T22:40:32.490Z,45.16
2023-04-26T22:43:01.303Z,45.35
2023-04-26T22:45:29.587Z,45.36
2023-04-26T22:47:57.902Z,45.12
2023-04-26T22:50:27.423Z,45.29
2023-04-26T22:52:57.713Z,44.96
2023-04-26T22:55:26.417Z,45.54
2023-04-26T22:57:56.936Z,44.90
2023-04-26T23:00:25.993Z,44.71
2023-04-26T23:02:55.281Z,44.88
2023-04-26T23:05:23.602Z,44.53
2023-04-26T23:07:53.095Z,44.95
2023-04-26T23:10:21.872Z,44.83
2023-04-26T23:12:51.393Z,45.44
2023-04-26T23:15:20.120Z,44.49
2023-04-26T23:17:49.214Z,44.21
2023-04-26T23:20:18.051Z,44.13
2023-04-26T23:22:47.295Z,44.26
2023-04-26T23:25:16.549Z,46.31
2023-04-26T23:27:46.010Z,44.53
2023-04-26T23:30:15.739Z,45.87
2023-04-26T23:32:45.103Z,44.72
2023-04-26T23:35:13.783Z,46.34
2023-04-26T23:37:43.238Z,45.68
2023-04-26T23:40:14.385Z,44.48
2023-04-26T23:42:43.308Z,45.15
2023-04-26T23:45:12.621Z,45.10
2023-04-26T23:47:48.674Z,45.55
2023-04-26T23:50:18.658Z,46.02
2023-04-26T23:52:47.628Z,46.15
2023-04-26T23:55:16.833Z,44.91
2023-04-26T23:57:45.835Z,44.02
